Date,TemperatureHighF,TemperatureAvgF,TemperatureLowF,DewpointHighF,DewpointAvgF,DewpointLowF,HumidityHigh,HumidityAvg,HumidityLow,PressureMaxIn,PressureMinIn,WindSpeedMaxMPH,WindSpeedAvgMPH,GustSpeedMaxMPH,PrecipitationSumIn
2013-1-1,21,21,21,21,21,21,100,100,100,29.99,29.99,6,6,0,0.00
2013-1-2,21,21,21,21,21,21,100,100,100,29.99,29.99,6,6,0,0.00
2013-1-3,21,21,21,21,21,21,100,100,100,29.99,29.99,6,6,0,0.00
2013-1-4,21,21,21,21,21,21,100,100,100,29.99,29.99,6,6,0,0.00
2013-1-5,21,21,21,21,21,21,100,100,100,29.99,29.99,6,6,0,0.00
2013-1-6,21,21,21,21,21,21,100,100,100,29.99,29.99,6,6,0,0.00
2013-1-7,36,25,18,30,24,18,100,94,80,29.99,29.87,8,5,0,0.00
2013-1-8,41,25,10,36,24,10,100,94,74,30.16,29.79,13,7,0,0.00
2013-1-9,48,32,21,39,30,21,100,92,70,30.40,30.16,12,7,0,0.00
2013-1-10,37,36,34,37,36,32,100,98,86,30.25,29.60,12,6,0,0.00
2013-1-11,48,35,23,43,34,19,100,95,81,29.86,29.28,28,14,37,0.00
2013-1-12,23,17,9,19,13,9,100,82,72,30.14,29.86,23,12,31,0.00
2013-1-13,23,13,7,16,9,3,100,87,67,30.27,30.14,14,9,18,0.00
2013-1-14,28,16,3,19,12,3,100,87,63,30.37,30.23,9,4,0,0.00
2013-1-15,34,20,10,21,16,10,100,84,47,30.25,30.03,12,7,0,0.00
2013-1-16,48,36,18,36,31,16,100,80,61,30.28,30.00,18,13,25,0.00
2013-1-17,52,36,27,36,30,27,100,81,53,30.46,30.26,12,7,0,0.00
2013-1-18,55,39,27,37,31,27,100,77,47,30.26,29.95,15,9,16,0.00
2013-1-19,57,41,32,37,31,27,86,68,44,30.25,29.94,17,10,22,0.00
2013-1-20,34,28,18,30,26,18,100,95,85,30.39,30.19,14,5,20,0.00
2013-1-21,36,22,16,30,22,16,100,96,80,30.38,30.18,13,6,0,0.00
2013-1-22,36,21,10,25,18,10,100,88,64,30.20,30.11,12,4,0,0.00
2013-1-23,43,28,19,30,25,19,100,88,60,30.35,30.10,15,8,20,0.00
2013-1-24,27,18,10,21,16,10,100,94,73,30.36,30.04,10,7,16,0.00
2013-1-25,55,38,23,34,29,23,100,75,43,30.24,30.07,10,7,0,0.00
2013-1-26,57,42,28,45,35,28,100,78,47,30.15,29.85,21,11,28,0.00
2013-1-27,46,40,30,46,40,30,100,100,93,29.85,29.66,14,8,0,0.00
2013-1-28,45,34,27,45,34,27,100,100,100,29.78,29.54,18,6,25,0.00
2013-1-29,39,34,30,36,33,30,100,98,86,29.76,29.61,23,13,30,0.00
2013-1-30,34,26,19,30,23,18,100,87,64,29.93,29.75,27,13,32,0.00
2013-1-31,27,23,16,25,18,12,92,80,68,30.32,29.85,23,10,28,0.00
2013-2-1,48,31,16,37,26,14,100,85,61,30.28,29.97,24,11,31,0.00
2013-2-2,43,43,43,36,36,36,75,75,75,29.98,29.98,8,8,0,0.00
2013-2-3,43,43,43,36,36,36,75,75,75,29.98,29.98,8,8,0,0.00
2013-2-4,43,43,43,36,36,36,75,75,75,29.98,29.98,8,8,0,0.00
2013-2-5,43,43,43,36,36,36,75,75,75,29.98,29.98,8,8,0,0.00
2013-2-6,43,43,43,36,36,36,75,75,75,29.98,29.98,8,8,0,0.00
2013-2-7,55,42,30,37,28,-100,92,62,40,30.18,30.07,14,5,20,0.00
2013-2-8,55,39,25,37,32,25,100,78,43,30.19,29.91,25,11,35,0.00
2013-2-9,55,42,36,45,36,30,100,80,57,29.91,29.41,27,16,36,0.00
2013-2-10,45,33,28,45,32,27,100,96,86,30.00,29.25,32,21,51,0.00
2013-2-11,39,29,19,27,22,19,100,77,48,30.17,30.00,16,7,21,0.00
2013-2-12,48,30,16,28,21,16,100,73,31,30.11,29.95,18,9,28,0.00
2013-2-13,57,39,23,34,28,21,92,69,40,29.96,29.82,22,13,29,0.00
2013-2-14,46,35,18,36,30,18,100,82,49,30.30,29.92,22,12,31,0.00
2013-2-15,39,24,12,28,18,12,100,81,44,30.35,30.27,25,9,31,0.00
2013-2-16,61,32,12,37,25,12,100,78,41,30.32,29.94,27,9,32,0.00
2013-2-17,72,40,25,37,29,23,100,71,26,29.94,29.45,20,8,30,0.00
2013-2-18,48,38,18,36,27,16,92,67,42,30.11,29.48,32,19,40,0.00
2013-2-19,43,26,12,25,19,10,100,75,48,30.27,30.11,15,9,18,0.00
2013-2-20,23,20,18,23,16,9,100,84,57,30.15,29.92,17,14,24,0.00
2013-2-21,23,19,16,23,19,16,100,100,100,29.95,29.81,17,14,24,0.00
2013-2-22,27,14,5,21,13,5,100,95,79,30.01,29.89,14,9,0,0.00
2013-2-23,39,23,7,36,22,7,100,95,80,29.97,29.73,13,9,0,0.00
2013-2-24,34,26,18,34,26,18,100,100,100,30.02,29.77,18,8,27,0.00
2013-2-25,34,28,21,30,28,21,100,99,86,30.03,29.89,16,11,21,0.00
2013-2-26,34,22,9,28,21,9,100,94,80,29.94,29.80,15,8,0,0.00
2013-2-27,36,30,21,34,28,21,100,91,80,30.18,29.94,24,14,28,0.00
2013-2-28,37,28,19,32,26,19,100,93,74,30.23,30.17,14,7,0,0.00
2013-3-1,37,28,19,34,27,19,100,98,86,30.31,30.19,13,3,0,0.00
2013-3-2,48,33,18,43,31,18,100,93,75,30.30,30.01,9,4,0,0.00
2013-3-3,54,41,30,45,38,30,100,88,66,30.01,29.58,10,5,0,0.00
2013-3-4,45,37,28,37,33,21,100,85,63,30.16,29.59,31,-6,39,0.00
2013-3-5,41,30,21,27,23,19,92,74,52,30.34,30.16,23,13,31,0.00
2013-3-6,45,31,19,34,27,19,100,85,60,30.34,29.99,20,11,28,0.00
2013-3-7,55,39,27,39,33,27,100,81,50,30.02,29.96,16,8,21,0.00
2013-3-8,64,47,32,55,44,32,100,89,63,30.01,29.70,18,9,24,0.00
2013-3-9,66,50,34,57,47,30,100,89,59,29.80,29.48,32,18,38,0.00
2013-3-10,36,29,21,32,26,19,100,86,69,30.05,29.79,41,24,47,0.00
2013-3-11,57,36,18,39,27,18,100,74,43,30.04,29.86,20,10,28,0.00
2013-3-12,50,38,27,37,28,18,100,70,34,30.32,30.03,25,11,38,0.00
2013-3-13,68,43,21,43,30,19,92,64,39,30.32,30.12,20,7,29,0.00
2013-3-14,77,57,39,46,41,36,86,58,29,30.18,30.05,17,9,23,0.00
2013-3-15,84,60,37,48,42,36,93,56,26,30.05,29.70,18,10,27,0.00
2013-3-16,55,40,32,46,35,30,100,81,56,30.06,29.79,18,12,25,0.00
2013-3-17,43,32,28,43,32,28,100,100,100,30.01,29.58,15,9,22,0.00
2013-3-18,54,41,28,36,31,23,100,72,37,30.01,29.73,24,12,32,0.00
2013-3-19,54,40,30,34,28,19,92,64,37,30.30,29.99,21,7,32,0.00
2013-3-20,50,34,16,28,23,14,100,69,39,30.37,29.89,18,1,24,0.00
2013-3-21,52,39,28,32,27,23,93,65,43,29.90,29.67,21,15,29,0.00
2013-3-22,52,38,27,39,34,27,100,86,53,29.94,29.80,14,7,18,0.00
2013-3-23,36,30,27,36,30,27,100,100,100,30.11,29.90,23,13,31,0.00
2013-3-24,34,25,12,28,22,12,100,88,68,30.20,30.08,20,14,25,0.00
2013-3-25,36,24,16,23,19,16,100,82,59,30.33,30.20,20,11,24,0.00
2013-3-26,52,30,10,36,24,10,100,82,50,30.33,30.04,16,7,23,0.00
2013-3-27,57,43,34,39,34,28,93,73,47,30.16,30.02,13,6,16,0.00
2013-3-28,66,47,25,43,36,25,100,71,42,30.17,30.05,14,5,22,0.00
2013-3-29,72,56,36,57,46,34,100,70,46,30.15,29.91,25,8,31,0.00
2013-3-30,70,56,43,55,49,-100,100,84,43,30.09,29.91,21,10,24,0.00
2013-3-31,70,52,37,46,43,37,100,75,37,30.10,29.86,30,10,39,0.00
2013-4-1,50,40,28,37,32,28,100,76,49,30.28,30.02,27,10,39,0.00
2013-4-2,55,42,30,34,27,21,100,60,28,30.25,30.16,10,-9,17,0.00
2013-4-3,54,43,34,34,29,23,86,59,30,30.27,30.18,17,8,25,0.00
2013-4-4,68,46,27,36,32,25,100,63,28,30.20,30.05,10,5,0,0.00
2013-4-5,81,60,41,43,36,30,80,47,16,30.09,29.62,30,14,45,0.00
2013-4-6,75,62,45,43,37,30,66,42,20,29.82,29.60,28,12,36,0.00
2013-4-7,77,59,45,54,41,34,93,55,23,29.82,29.58,24,10,33,0.00
2013-4-8,70,57,45,61,53,45,100,89,68,29.66,29.48,20,8,28,0.00
2013-4-9,64,33,21,61,30,18,93,88,67,30.09,29.45,35,20,48,0.00
2013-4-10,28,26,21,27,22,19,92,83,79,30.09,29.92,21,15,27,0.00
2013-4-11,45,32,21,28,24,19,92,74,52,29.95,29.73,21,13,28,0.00
2013-4-12,57,40,27,36,30,21,100,70,35,30.03,29.85,21,9,27,0.00
2013-4-13,72,50,27,48,38,27,100,68,35,30.03,29.38,28,12,33,0.00
2013-4-14,63,55,36,46,31,18,81,44,19,29.75,29.23,41,20,53,0.00
2013-4-15,52,42,32,27,23,-100,74,50,27,30.01,29.73,16,10,22,0.00
2013-4-16,46,42,36,28,27,25,74,55,42,30.15,29.99,20,13,27,0.00
2013-4-17,43,37,30,36,32,27,93,80,52,30.06,29.84,31,16,41,0.00
2013-4-18,37,31,28,28,25,21,92,78,55,30.07,29.91,31,22,39,0.00
2013-4-19,59,41,23,32,26,19,85,59,33,30.05,29.97,23,12,36,0.00
2013-4-20,61,45,32,37,31,25,86,60,36,30.05,29.94,22,13,30,0.00
2013-4-21,73,54,32,46,38,30,93,59,25,30.03,29.94,16,6,30,0.00
2013-4-22,52,42,32,50,39,27,100,88,71,30.29,29.89,30,16,38,0.00
2013-4-23,43,33,27,27,23,19,92,69,38,30.28,30.15,25,13,32,0.00
2013-4-24,63,41,21,30,24,19,92,56,21,30.23,30.10,24,10,40,0.00
2013-4-25,73,52,27,34,28,21,92,48,15,30.23,29.93,32,13,41,0.00
2013-4-26,77,62,50,52,38,27,87,42,23,30.17,29.97,23,10,28,0.00
2013-4-27,79,58,36,54,42,36,100,64,25,30.17,29.93,15,7,22,0.00
2013-4-28,93,69,48,46,38,28,87,43,10,29.95,29.68,22,11,32,0.00
2013-4-29,84,68,54,50,43,36,62,43,20,29.81,29.52,14,-6,22,0.00
2013-4-30,75,65,50,50,42,27,66,44,26,29.84,29.51,29,16,38,0.00
2013-5-1,61,39,34,39,35,27,100,86,26,30.49,29.82,35,22,43,0.00
2013-5-2,54,43,34,36,30,21,100,64,27,30.63,30.42,27,14,32,0.00
2013-5-3,61,44,27,34,26,21,92,55,21,30.42,30.06,20,8,25,0.00
2013-5-4,59,45,28,32,24,19,80,47,22,30.19,30.08,27,16,33,0.00
2013-5-5,66,50,32,36,30,27,86,51,22,30.22,30.09,16,7,21,0.00
2013-5-6,73,57,34,48,38,32,100,57,25,30.15,30.01,12,5,23,0.00
2013-5-7,70,59,54,57,52,37,93,79,50,30.04,29.84,20,11,27,0.00
2013-5-8,77,63,48,55,53,48,100,72,36,29.94,29.86,15,7,22,0.00
2013-5-9,70,58,48,55,51,46,100,78,49,30.10,29.92,24,12,30,0.00
2013-5-10,77,59,45,52,43,-100,100,64,25,30.15,30.05,13,7,18,0.00
2013-5-11,72,59,48,45,33,-100,81,44,16,30.36,30.12,20,11,29,0.00
2013-5-12,81,60,43,48,40,30,75,49,24,30.26,30.03,15,7,21,0.00
2013-5-13,97,73,46,54,44,37,100,46,13,30.06,29.91,15,6,21,0.00
2013-5-14,102,79,55,55,47,39,76,39,12,29.92,29.71,32,10,39,0.00
2013-5-15,88,74,61,57,48,41,63,40,25,29.86,29.77,20,10,27,0.00
2013-5-16,86,65,57,61,37,-100,93,63,30,29.86,29.73,30,10,37,0.00
2013-5-17,88,70,54,63,53,-100,100,66,33,29.89,29.79,20,9,27,0.00
2013-5-18,86,72,64,70,62,48,100,73,36,29.84,29.57,29,12,43,0.00
2013-5-19,81,66,57,57,52,45,87,63,34,29.71,29.61,29,12,36,0.00
2013-5-20,75,63,54,54,48,43,93,62,31,29.82,29.67,30,17,38,0.00
2013-5-21,72,59,52,48,44,39,81,60,30,29.86,29.78,32,17,37,0.00
2013-5-22,79,61,46,48,46,43,93,60,29,30.05,29.85,17,10,22,0.00
2013-5-23,73,60,46,52,48,43,93,67,40,30.19,30.05,20,10,24,0.00
2013-5-24,82,67,57,66,57,52,87,72,42,30.17,29.93,24,16,40,0.00
2013-5-25,93,78,64,66,61,54,93,60,28,30.03,29.82,23,15,31,0.00
2013-5-26,99,81,66,66,61,52,88,55,20,29.91,29.70,24,16,35,0.00
2013-5-27,84,73,64,66,65,61,93,75,54,29.74,29.58,24,12,31,0.00
2013-5-28,86,72,59,68,62,55,100,72,45,29.75,29.56,20,10,25,0.00
2013-5-29,90,72,55,64,58,46,100,64,38,29.62,29.39,35,14,62,0.00
2013-5-30,81,64,55,57,51,43,100,68,26,29.70,29.56,44,10,54,0.00
2013-5-31,84,67,52,54,42,30,81,47,15,29.86,29.70,28,15,36,0.00
2013-6-1,72,60,48,48,45,43,81,57,35,30.14,29.85,31,18,43,0.00
2013-6-2,75,60,39,46,44,37,100,60,33,30.18,29.96,13,6,17,0.00
2013-6-3,88,69,52,61,52,46,81,57,33,29.97,29.64,27,17,38,0.00
2013-6-4,77,69,61,63,61,59,100,76,57,30.03,29.69,24,8,32,0.00
2013-6-5,70,61,52,61,49,45,93,65,42,30.14,29.97,23,12,30,0.00
2013-6-6,79,63,43,50,46,43,100,60,29,30.11,29.98,12,6,16,0.00
2013-6-7,84,67,48,55,50,45,87,58,32,30.07,29.85,15,6,21,0.00
2013-6-8,82,68,55,63,56,48,87,67,37,29.90,29.67,23,11,36,0.00
2013-6-9,90,71,50,54,48,43,87,51,19,29.95,29.86,24,11,33,0.00
2013-6-10,102,79,55,68,56,46,76,49,25,29.92,29.71,17,9,25,0.00
2013-6-11,113,91,73,68,55,43,73,35,10,29.80,29.57,24,12,33,0.00
2013-6-12,97,84,66,66,57,48,82,44,20,30.09,29.60,27,15,35,0.00
2013-6-13,88,72,55,63,55,52,93,58,33,30.14,29.93,17,10,24,0.00
2013-6-14,106,81,70,66,59,46,82,52,18,30.03,29.74,23,11,39,0.00
2013-6-15,93,80,66,66,59,52,68,50,29,29.98,29.85,17,7,25,0.00
2013-6-16,91,77,61,66,60,52,93,59,31,30.05,29.91,24,7,36,0.00
2013-6-17,88,73,57,63,59,54,100,66,31,30.11,29.97,10,5,16,0.00
2013-6-18,88,71,61,64,61,57,93,70,40,30.12,29.95,17,6,22,0.00
2013-6-19,88,75,63,64,61,57,93,64,37,30.03,29.83,22,10,29,0.00
2013-6-20,97,78,70,68,65,61,88,66,30,29.88,29.74,22,14,28,0.00
2013-6-22,97,91,79,66,62,61,61,39,30,29.83,29.67,28,17,38,0.00
2013-6-23,90,78,64,68,62,57,78,58,40,29.91,29.68,28,11,38,0.00
2013-6-24,99,82,66,68,61,52,83,54,26,29.88,29.63,24,11,32,0.00
2013-6-25,97,83,70,64,60,46,78,49,18,29.82,29.66,22,12,32,0.00
2013-6-26,102,84,63,61,56,50,77,42,17,29.96,29.82,12,4,17,0.00
2013-6-27,102,86,72,72,64,55,78,50,27,30.10,29.91,23,9,29,0.00
2013-6-28,93,80,64,68,59,52,93,54,26,30.14,30.04,18,9,25,0.00
2013-6-29,88,75,57,57,53,45,87,49,28,30.10,30.00,21,10,28,0.00
2013-6-30,84,71,54,55,51,46,93,53,28,30.17,30.07,17,9,25,0.00
2013-7-1,82,68,48,52,47,41,93,52,25,30.26,30.17,14,6,18,0.00
2013-7-2,86,68,46,48,45,41,87,49,20,30.23,30.10,8,3,0,0.00
2013-7-3,90,75,52,50,46,43,81,39,19,30.12,29.92,15,8,22,0.00
2013-7-4,97,80,61,52,47,43,67,34,16,29.97,29.84,17,11,24,0.00
2013-7-5,100,84,70,57,52,46,52,33,19,29.88,29.74,23,14,30,0.00
2013-7-6,106,84,73,61,56,54,56,40,19,29.83,29.71,25,15,33,0.00
2013-7-7,99,85,70,61,59,55,73,42,23,29.95,29.81,16,8,24,0.00
2013-7-8,106,85,72,70,63,54,94,55,19,30.02,29.84,23,8,36,0.00
2013-7-9,104,87,70,70,61,54,88,44,24,30.03,29.91,37,7,46,0.00
2013-7-10,91,79,70,72,63,-100,94,62,37,30.16,29.98,17,9,24,0.00
2013-7-11,93,80,68,70,66,63,93,63,36,30.14,29.90,18,11,29,0.00
2013-7-12,102,87,73,68,64,57,78,49,25,29.96,29.82,18,11,25,0.00
2013-7-13,106,92,75,64,62,57,69,39,21,29.94,29.82,15,10,30,0.00
2013-7-14,90,80,68,70,65,57,88,61,35,30.16,29.88,20,11,29,0.00
2013-7-15,90,74,61,66,60,54,100,66,29,30.21,30.11,18,6,24,0.00
2013-7-16,86,74,64,64,63,59,100,71,40,30.30,30.19,21,10,29,0.00
2013-7-17,91,79,64,64,62,57,93,60,33,30.34,30.18,17,10,25,0.00
2013-7-18,97,82,70,66,62,59,83,54,30,30.21,29.95,22,12,30,0.00
2013-7-19,99,83,70,70,65,61,82,56,30,30.01,29.92,21,9,29,0.00
2013-7-20,93,77,63,66,63,-100,100,66,34,30.01,29.88,21,7,28,0.00
2013-7-21,95,78,61,66,61,57,93,61,28,30.03,29.82,29,7,44,0.00
2013-7-22,97,80,64,70,62,52,94,60,22,29.94,29.82,20,7,29,0.00
2013-7-23,93,79,70,68,62,59,82,58,34,30.05,29.87,21,11,30,0.00
2013-7-24,91,76,61,64,61,55,100,65,29,30.16,30.01,10,4,24,0.00
2013-7-25,79,70,64,72,65,55,100,84,44,30.13,30.00,15,6,17,0.00
2013-7-26,86,72,61,68,62,55,100,73,42,30.22,30.08,15,6,18,0.00
2013-7-27,66,63,59,57,55,54,87,75,63,30.18,30.04,15,8,23,0.00
2013-7-28,63,60,57,61,58,54,100,92,82,30.08,30.00,14,8,17,0.00
2013-7-29,75,67,61,66,64,61,100,91,73,30.06,29.96,13,8,16,0.00
2013-7-30,84,74,66,66,65,63,100,75,48,30.16,30.04,10,5,9,0.00
2013-7-31,90,75,66,70,65,61,100,75,40,30.23,30.12,16,6,23,0.00
2013-8-1,93,79,66,68,65,63,100,65,41,30.17,29.85,20,9,29,0.00
2013-8-2,93,77,64,70,64,61,93,67,38,30.01,29.85,27,11,38,0.00
2013-8-3,79,72,68,68,65,63,94,79,61,30.17,30.01,21,12,27,0.00
2013-8-4,88,75,68,70,66,61,94,74,48,30.16,30.00,13,8,17,0.00
2013-8-5,90,76,70,73,71,68,100,87,55,30.04,29.87,10,5,0,0.00
2013-8-6,93,79,72,72,71,66,100,79,43,29.95,29.85,14,5,21,0.00
2013-8-7,86,76,64,72,63,57,94,66,37,30.04,29.92,33,8,48,0.00
2013-8-8,79,72,66,66,63,57,100,74,53,30.10,29.98,9,4,0,0.00
2013-8-9,88,73,59,66,59,55,100,69,33,30.20,30.07,15,5,17,0.00
2013-8-10,88,73,57,61,58,54,100,62,31,30.22,30.09,15,8,23,0.00
2013-8-11,91,77,64,68,64,61,93,66,40,30.15,30.00,15,8,21,0.00
2013-8-12,86,71,61,66,64,59,100,80,48,30.11,30.04,16,6,21,0.00
2013-8-13,79,56,64,64,22,-100,100,68,57,30.16,30.12,13,10,0,0.00
2013-8-15,-200,0,200,-100,-100,-100,0,0,100,30.16,30.16,13,13,0,0.00
2013-10-12,52,26,52,43,-28,-100,71,36,71,30.25,30.00,8,4,0,0.00
2013-10-13,41,41,41,34,34,34,75,75,75,30.29,30.29,5,5,0,0.00
2013-10-18,46,46,46,39,39,39,75,75,75,30.08,30.08,12,12,0,0.00
2013-10-24,46,46,46,39,39,39,75,75,75,30.08,30.08,12,12,0,0.00
2013-10-29,46,46,46,39,39,39,75,75,75,30.08,30.08,12,12,0,0.00
2013-10-30,46,46,46,39,39,39,75,75,75,30.08,30.08,12,12,0,0.00
2013-11-12,30,30,30,25,25,25,80,80,80,30.54,30.54,8,8,0,0.00
2013-11-15,32,30,28,32,30,28,100,100,100,29.85,29.83,6,6,0,0.00
2013-11-16,-200,0,200,-100,-100,-100,0,0,100,29.33,29.33,7,7,0,0.00
2013-11-17,55,55,55,19,19,19,24,24,24,29.86,29.86,30,30,41,0.00